Time;durP1;ratioP1;P1;durP2;ratioP2;P2;SDS_P1;SDS_P2;PMS_P1;PMS_P2;Temp;Humidity;BMP_temperature;BMP_pressure;BME280_temperature;BME280_humidity;BME280_pressure;Samples;Min_cycle;Max_cycle;Signal;HPM_P1;HPM_P2
2023/09/02 00:00:58;;;;;;;9.25;6.40;;;;;;;;;;5015054;28;20094;-71
2023/09/02 00:03:23;;;;;;;7.20;5.47;;;17.00;99.90;;;;;;5014808;28;20041;-71
2023/09/02 00:05:49;;;;;;;7.13;5.20;;;17.00;99.90;;;;;;4998530;28;20504;-70
2023/09/02 00:08:14;;;;;;;7.80;5.07;;;16.90;99.90;;;;;;5032373;28;20136;-70
2023/09/02 00:10:40;;;;;;;7.72;5.88;;;16.90;99.90;;;;;;5014915;28;20497;-70
2023/09/02 00:13:06;;;;;;;9.70;5.20;;;16.80;99.90;;;;;;5015035;28;20382;-70
2023/09/02 00:15:31;;;;;;;8.43;5.28;;;16.90;99.90;;;;;;5014590;28;20045;-70
2023/09/02 00:17:57;;;;;;;9.07;5.53;;;16.80;99.90;;;;;;4998487;28;20079;-70
2023/09/02 00:20:22;;;;;;;6.90;5.30;;;16.70;99.90;;;;;;5014723;28;20090;-70
2023/09/02 00:22:48;;;;;;;7.43;5.20;;;16.90;99.90;;;;;;5014464;28;20068;-70
2023/09/02 00:25:14;;;;;;;8.20;5.65;;;16.80;99.90;;;;;;5014456;28;20044;-70
2023/09/02 00:27:39;;;;;;;6.90;5.10;;;17.00;99.90;;;;;;5014609;28;20187;-70
2023/09/02 00:30:05;;;;;;;9.13;5.68;;;16.70;99.90;;;;;;5014802;28;20463;-70
2023/09/02 00:32:33;;;;;;;9.02;4.97;;;16.70;99.90;;;;;;5014438;28;20046;-70
2023/09/02 00:34:59;;;;;;;7.97;5.60;;;;;;;;;;4998041;28;20049;-70
2023/09/02 00:37:25;;;;;;;7.28;5.28;;;16.80;99.90;;;;;;5014294;28;20410;-70
2023/09/02 00:39:51;;;;;;;8.48;5.72;;;16.90;99.90;;;;;;5014422;28;20037;-70
2023/09/02 00:42:19;;;;;;;6.32;5.55;;;16.70;99.90;;;;;;5014214;28;20095;-70
2023/09/02 00:44:46;;;;;;;7.82;5.57;;;16.70;99.90;;;;;;5014490;28;20567;-70
2023/09/02 00:47:12;;;;;;;7.18;5.65;;;16.60;99.90;;;;;;5014282;28;20144;-70
2023/09/02 00:49:38;;;;;;;10.32;6.35;;;16.50;99.90;;;;;;5014044;28;20120;-70
2023/09/02 00:52:04;;;;;;;8.05;5.70;;;;;;;;;;5014122;28;20033;-70
2023/09/02 00:54:32;;;;;;;9.15;5.93;;;16.90;99.90;;;;;;5014080;28;20044;-70
2023/09/02 00:56:58;;;;;;;7.22;6.05;;;16.60;99.90;;;;;;5014262;28;20064;-70
2023/09/02 00:59:23;;;;;;;10.50;6.07;;;16.40;99.90;;;;;;5014352;28;20485;-70
2023/09/02 01:01:49;;;;;;;10.18;5.65;;;;;;;;;;5013887;28;20044;-70
2023/09/02 01:04:15;;;;;;;10.98;5.85;;;;;;;;;;5013989;28;20516;-70
2023/09/02 01:06:42;;;;;;;7.82;5.93;;;16.50;99.90;;;;;;5013868;28;20042;-70
2023/09/02 01:09:09;;;;;;;6.90;5.78;;;16.60;99.90;;;;;;5031715;28;20041;-70
2023/09/02 01:11:35;;;;;;;8.95;6.13;;;16.50;99.90;;;;;;5014168;28;20041;-69
2023/09/02 01:14:02;;;;;;;9.07;6.18;;;16.60;99.90;;;;;;5014045;28;20037;-69
2023/09/02 01:16:27;;;;;;;7.97;5.78;;;16.60;99.90;;;;;;5013654;28;20512;-70
2023/09/02 01:18:53;;;;;;;8.00;6.00;;;16.60;99.90;;;;;;5013786;28;20042;-70
2023/09/02 01:21:34;;;;;;;10.75;5.45;;;16.60;99.90;;;;;;5031653;28;20151;-70
2023/09/02 01:24:29;;;;;;;7.38;5.75;;;16.60;99.90;;;;;;5013859;28;20048;-70
2023/09/02 01:27:13;;;;;;;10.32;6.10;;;16.60;99.90;;;;;;4997498;28;20504;-70
2023/09/02 01:30:02;;;;;;;8.63;6.35;;;16.50;99.90;;;;;;5013762;28;20048;-70
2023/09/02 01:32:33;;;;;;;8.57;6.35;;;16.50;99.90;;;;;;5013652;28;20041;-70
2023/09/02 01:35:05;;;;;;;8.15;5.60;;;16.40;99.90;;;;;;5031303;28;20121;-69
2023/09/02 01:37:38;;;;;;;9.70;5.85;;;16.50;99.90;;;;;;5013775;28;20516;-70
2023/09/02 01:40:06;;;;;;;8.10;5.78;;;16.60;99.90;;;;;;5013927;28;20400;-70
2023/09/02 01:42:33;;;;;;;8.38;5.65;;;16.40;99.90;;;;;;5013482;28;20077;-70
2023/09/02 01:45:00;;;;;;;9.73;6.78;;;16.40;99.90;;;;;;5013316;28;20072;-70
2023/09/02 01:47:26;;;;;;;12.57;6.75;;;16.40;99.90;;;;;;5013514;28;20041;-70
2023/09/02 01:49:53;;;;;;;10.20;5.88;;;16.60;99.90;;;;;;5013627;28;20371;-70
2023/09/02 01:52:19;;;;;;;9.23;5.82;;;16.40;99.90;;;;;;5013228;28;20037;-71
2023/09/02 01:54:45;;;;;;;9.32;5.82;;;;;;;;;;5013471;28;20041;-70
2023/09/02 01:57:11;;;;;;;7.97;6.65;;;16.50;99.90;;;;;;5013366;28;20041;-70
2023/09/02 01:59:37;;;;;;;10.90;6.60;;;16.60;99.90;;;;;;5017390;28;20052;-69
2023/09/02 02:02:03;;;;;;;7.95;5.85;;;;;;;;;;5013440;28;20049;-70
2023/09/02 02:04:38;;;;;;;10.43;7.25;;;16.70;99.90;;;;;;5013405;28;20056;-70
2023/09/02 02:07:09;;;;;;;8.25;6.20;;;16.40;99.90;;;;;;5000002;28;20048;-70
2023/09/02 02:09:48;;;;;;;6.80;4.85;;;16.20;99.90;;;;;;5017153;28;20041;-70
2023/09/02 02:12:15;;;;;;;8.27;5.40;;;;;;;;;;5017272;28;20067;-70
2023/09/02 02:14:40;;;;;;;10.95;6.40;;;16.40;99.90;;;;;;5017140;28;20037;-70
2023/09/02 02:17:07;;;;;;;12.18;7.15;;;16.40;99.90;;;;;;5000537;28;20042;-70
2023/09/02 02:19:33;;;;;;;12.13;7.32;;;16.50;99.90;;;;;;5016892;28;20047;-70
2023/09/02 02:22:00;;;;;;;12.20;7.78;;;16.30;99.90;;;;;;5016859;28;20049;-70
2023/09/02 02:24:26;;;;;;;10.32;7.43;;;16.20;99.90;;;;;;5016922;28;20132;-70
2023/09/02 02:26:52;;;;;;;10.30;6.97;;;16.10;99.90;;;;;;5016915;28;20160;-70
2023/09/02 02:29:18;;;;;;;10.00;7.47;;;16.00;99.90;;;;;;5000298;28;20038;-70
2023/09/02 02:31:43;;;;;;;12.88;7.32;;;16.20;99.90;;;;;;5016520;28;20044;-70
2023/09/02 02:34:09;;;;;;;11.48;7.28;;;16.30;99.90;;;;;;5016676;28;20459;-70
2023/09/02 02:36:35;;;;;;;11.85;7.82;;;;;;;;;;5016440;28;20401;-70
2023/09/02 02:39:00;;;;;;;11.18;7.30;;;16.30;99.90;;;;;;5016741;28;20448;-70
2023/09/02 02:41:26;;;;;;;9.18;7.32;;;16.00;99.90;;;;;;5016697;28;20037;-70
2023/09/02 02:43:52;;;;;;;10.90;7.50;;;16.20;99.90;;;;;;5020762;28;20433;-70
2023/09/02 02:46:17;;;;;;;9.90;7.50;;;16.20;99.90;;;;;;5019993;28;20033;-70
2023/09/02 02:48:43;;;;;;;8.75;7.18;;;16.10;99.90;;;;;;5019183;28;20073;-70
2023/09/02 02:51:09;;;;;;;12.93;7.65;;;16.00;99.90;;;;;;5018271;28;20133;-70
2023/09/02 02:53:34;;;;;;;11.35;7.70;;;16.10;99.90;;;;;;5017439;28;20049;-70
2023/09/02 02:56:02;;;;;;;10.82;7.30;;;16.10;99.90;;;;;;5016752;28;20087;-72
2023/09/02 02:58:28;;;;;;;11.00;8.00;;;16.10;99.90;;;;;;5000347;28;20041;-70
2023/09/02 03:01:05;;;;;;;10.80;7.32;;;15.90;99.90;;;;;;5016277;28;20037;-70
2023/09/02 03:03:30;;;;;;;11.05;8.15;;;15.80;99.90;;;;;;5000072;28;20037;-70
2023/09/02 03:05:57;;;;;;;9.55;7.82;;;16.10;99.90;;;;;;5016068;28;20033;-70
2023/09/02 03:08:23;;;;;;;13.07;8.40;;;15.90;99.90;;;;;;5015957;28;20099;-70
2023/09/02 03:10:58;;;;;;;10.15;7.18;;;15.90;99.90;;;;;;5015911;28;20517;-70
2023/09/02 03:13:25;;;;;;;10.82;8.23;;;;;;;;;;5018486;28;20063;-70
2023/09/02 03:15:53;;;;;;;10.90;7.63;;;16.10;99.90;;;;;;5016756;28;20041;-70
2023/09/02 03:18:19;;;;;;;13.13;8.68;;;16.00;99.90;;;;;;5016339;28;20045;-70
2023/09/02 03:20:45;;;;;;;12.77;8.43;;;16.10;99.90;;;;;;5016017;28;20519;-70
2023/09/02 03:23:11;;;;;;;11.02;8.32;;;16.30;99.90;;;;;;4999251;28;20120;-70
2023/09/02 03:25:40;;;;;;;10.93;7.95;;;16.20;99.90;;;;;;5016151;28;20044;-70
2023/09/02 03:28:06;;;;;;;9.55;7.60;;;16.10;99.90;;;;;;5015561;28;20045;-70
2023/09/02 03:30:32;;;;;;;11.40;8.48;;;16.00;99.90;;;;;;5015893;28;20439;-70
2023/09/02 03:32:58;;;;;;;10.75;8.57;;;16.30;99.90;;;;;;5033395;28;20040;-70
2023/09/02 03:35:24;;;;;;;9.93;8.00;;;16.10;99.90;;;;;;5015628;28;20041;-70
2023/09/02 03:37:49;;;;;;;11.85;8.40;;;16.10;99.90;;;;;;5015486;28;20496;-70
2023/09/02 03:40:15;;;;;;;14.20;8.73;;;16.10;99.90;;;;;;5015715;28;20440;-70
2023/09/02 03:42:41;;;;;;;9.75;7.93;;;16.20;99.90;;;;;;4998866;28;20037;-70
2023/09/02 03:45:09;;;;;;;9.73;7.63;;;16.30;99.90;;;;;;5015116;28;20044;-70
2023/09/02 03:47:35;;;;;;;10.55;7.85;;;16.10;99.90;;;;;;5015458;28;20041;-70
2023/09/02 03:50:03;;;;;;;11.05;8.05;;;16.00;99.90;;;;;;5015448;28;20515;-70
2023/09/02 03:52:28;;;;;;;14.10;9.18;;;16.30;99.90;;;;;;4998597;28;20075;-70
2023/09/02 03:54:54;;;;;;;11.18;8.27;;;15.90;99.90;;;;;;5015369;28;20378;-70
2023/09/02 03:57:20;;;;;;;9.95;8.93;;;16.10;99.90;;;;;;4998734;28;20519;-70
2023/09/02 03:59:45;;;;;;;11.40;8.68;;;16.20;99.90;;;;;;5015042;28;20043;-70
2023/09/02 04:02:11;;;;;;;8.93;7.60;;;16.00;99.90;;;;;;5015193;28;20408;-70
2023/09/02 04:04:37;;;;;;;10.50;8.73;;;;;;;;;;5015227;28;20041;-70
2023/09/02 04:07:03;;;;;;;12.05;8.57;;;;;;;;;;5014745;28;20176;-70
2023/09/02 04:09:29;;;;;;;12.30;8.55;;;;;;;;;;5014899;28;20076;-70
2023/09/02 04:11:55;;;;;;;12.20;8.75;;;16.10;99.90;;;;;;5014701;28;20038;-70
2023/09/02 04:14:20;;;;;;;10.95;8.80;;;16.30;99.90;;;;;;5014848;28;20060;-70
2023/09/02 04:16:46;;;;;;;12.02;9.10;;;16.20;99.90;;;;;;5014771;28;20378;-70
2023/09/02 04:19:12;;;;;;;10.77;8.20;;;16.20;99.90;;;;;;5014731;28;20029;-71
2023/09/02 04:21:38;;;;;;;13.07;9.57;;;;;;;;;;4998319;28;20527;-70
2023/09/02 04:24:03;;;;;;;14.80;9.30;;;16.00;99.90;;;;;;5014694;28;20037;-70
2023/09/02 04:26:29;;;;;;;10.95;8.55;;;;;;;;;;5014324;28;20033;-70
2023/09/02 04:28:55;;;;;;;11.68;9.25;;;15.80;99.90;;;;;;5013926;28;20120;-70
2023/09/02 04:31:22;;;;;;;10.90;8.20;;;15.80;99.90;;;;;;4998207;28;20152;-70
2023/09/02 04:33:48;;;;;;;13.20;9.73;;;16.00;99.90;;;;;;5014750;28;20063;-70
2023/09/02 04:36:14;;;;;;;13.88;9.60;;;15.70;99.90;;;;;;5014242;28;20077;-70
2023/09/02 04:38:39;;;;;;;11.70;8.55;;;15.80;99.90;;;;;;5014522;28;20149;-70
2023/09/02 04:41:06;;;;;;;15.60;8.55;;;15.70;99.90;;;;;;5014472;28;20493;-70
2023/09/02 04:43:32;;;;;;;11.27;9.05;;;15.70;99.90;;;;;;5014179;28;20045;-70
2023/09/02 04:46:04;;;;;;;14.40;9.75;;;15.60;99.90;;;;;;5014162;28;20691;-70
2023/09/02 04:48:30;;;;;;;13.73;9.95;;;15.90;99.90;;;;;;5014202;28;20386;-70
2023/09/02 04:50:56;;;;;;;12.63;10.07;;;15.70;99.90;;;;;;4997835;28;20036;-70
2023/09/02 04:53:22;;;;;;;12.95;9.65;;;15.90;99.90;;;;;;4997772;28;20465;-70
2023/09/02 04:55:49;;;;;;;12.60;9.63;;;16.30;99.90;;;;;;5014055;28;20471;-70
2023/09/02 04:58:16;;;;;;;13.57;10.27;;;16.10;99.90;;;;;;5032143;28;20045;-70
2023/09/02 05:00:42;;;;;;;12.38;9.05;;;15.60;99.90;;;;;;5032147;28;20041;-70
2023/09/02 05:03:10;;;;;;;11.18;9.18;;;15.60;99.90;;;;;;5013966;28;20051;-70
2023/09/02 05:05:36;;;;;;;14.32;9.45;;;15.70;99.90;;;;;;5031540;28;20456;-70
2023/09/02 05:08:02;;;;;;;11.18;8.95;;;16.20;99.90;;;;;;5013932;28;20096;-70
2023/09/02 05:10:28;;;;;;;11.73;9.27;;;15.70;99.90;;;;;;5014192;28;20029;-71
2023/09/02 05:12:54;;;;;;;11.63;9.02;;;16.10;99.90;;;;;;5014374;28;20064;-70
2023/09/02 05:15:19;;;;;;;12.57;9.65;;;15.70;99.90;;;;;;5014151;28;20037;-70
2023/09/02 05:17:45;;;;;;;11.77;8.70;;;15.80;99.90;;;;;;5014357;28;20049;-70
2023/09/02 05:20:12;;;;;;;12.95;9.68;;;16.00;99.90;;;;;;5014876;28;20049;-70
2023/09/02 05:22:37;;;;;;;13.98;10.55;;;15.80;99.90;;;;;;5013768;28;20041;-70
2023/09/02 05:25:04;;;;;;;13.75;10.57;;;16.40;99.90;;;;;;5013663;28;20393;-70
2023/09/02 05:27:31;;;;;;;17.95;11.77;;;15.80;99.90;;;;;;5013913;28;20041;-71
2023/09/02 05:29:56;;;;;;;16.50;11.07;;;15.80;99.90;;;;;;5013798;28;20064;-71
2023/09/02 05:32:22;;;;;;;16.70;11.45;;;16.10;99.90;;;;;;5014025;28;20122;-70
2023/09/02 05:34:48;;;;;;;15.15;11.27;;;15.90;99.90;;;;;;5014025;28;20052;-70
2023/09/02 05:37:14;;;;;;;17.60;11.38;;;16.00;99.90;;;;;;5013385;28;20046;-70
2023/09/02 05:39:39;;;;;;;14.68;10.98;;;15.80;99.90;;;;;;5013669;28;20037;-70
2023/09/02 05:42:05;;;;;;;13.98;10.13;;;16.10;99.90;;;;;;5017105;28;20420;-70
2023/09/02 05:44:34;;;;;;;13.32;10.07;;;16.10;99.90;;;;;;5017650;28;20045;-70
2023/09/02 05:46:59;;;;;;;16.45;11.57;;;15.80;99.90;;;;;;5017357;28;20049;-70
2023/09/02 05:49:25;;;;;;;14.45;10.77;;;16.10;99.90;;;;;;5017552;28;20576;-70
2023/09/02 05:51:51;;;;;;;17.10;11.13;;;16.10;99.90;;;;;;5017765;28;20049;-70
2023/09/02 05:54:16;;;;;;;15.13;10.68;;;16.20;99.90;;;;;;5001118;28;20064;-71
2023/09/02 05:56:42;;;;;;;17.85;11.13;;;16.50;99.90;;;;;;5017245;28;20493;-71
2023/09/02 05:59:07;;;;;;;17.00;11.00;;;16.20;99.90;;;;;;5018048;28;20076;-70
2023/09/02 06:01:33;;;;;;;15.07;10.68;;;16.70;99.90;;;;;;5020313;28;20045;-71
2023/09/02 06:03:59;;;;;;;12.48;9.05;;;16.30;99.90;;;;;;5017319;28;20045;-71
2023/09/02 06:06:25;;;;;;;12.75;9.25;;;16.60;99.90;;;;;;5000642;28;20073;-72
2023/09/02 06:08:53;;;;;;;14.88;10.05;;;16.70;99.90;;;;;;5035087;28;20132;-71
2023/09/02 06:11:18;;;;;;;15.57;10.05;;;16.40;99.90;;;;;;5000686;28;20061;-71
2023/09/02 06:13:44;;;;;;;14.75;9.82;;;16.70;99.90;;;;;;5017048;28;20048;-71
2023/09/02 06:16:10;;;;;;;15.40;10.30;;;16.70;99.90;;;;;;5016716;28;20566;-71
2023/09/02 06:18:36;;;;;;;13.55;9.60;;;16.70;99.90;;;;;;5017172;28;20042;-71
2023/09/02 06:21:12;;;;;;;16.17;10.35;;;16.70;99.90;;;;;;5016849;28;20088;-71
2023/09/02 06:23:43;;;;;;;15.23;10.55;;;16.80;99.90;;;;;;5017197;28;20176;-71
2023/09/02 06:26:11;;;;;;;17.42;11.60;;;16.80;99.90;;;;;;5016741;28;20049;-71
2023/09/02 06:28:37;;;;;;;18.98;12.93;;;17.10;99.90;;;;;;5016625;28;20095;-71
2023/09/02 06:31:08;;;;;;;20.15;12.07;;;17.20;99.90;;;;;;5016764;28;20116;-71
2023/09/02 06:33:34;;;;;;;20.77;12.63;;;17.20;99.90;;;;;;5016430;28;20041;-71
2023/09/02 06:35:59;;;;;;;19.45;12.55;;;17.40;99.90;;;;;;5016438;28;20091;-70
2023/09/02 06:38:25;;;;;;;18.25;12.55;;;17.30;99.90;;;;;;5000472;28;20429;-71
2023/09/02 06:40:51;;;;;;;21.45;13.50;;;17.80;99.90;;;;;;5016599;28;20078;-71
2023/09/02 06:43:16;;;;;;;19.60;14.10;;;18.00;99.90;;;;;;5016399;28;20071;-70
2023/09/02 06:45:42;;;;;;;19.23;13.43;;;17.90;99.90;;;;;;5016614;28;20037;-71
2023/09/02 06:48:08;;;;;;;21.75;14.20;;;17.80;99.90;;;;;;5016264;28;20128;-71
2023/09/02 06:50:34;;;;;;;26.65;15.70;;;18.00;99.90;;;;;;5016410;28;20116;-71
2023/09/02 06:53:00;;;;;;;19.27;14.27;;;18.30;99.90;;;;;;4999344;28;20077;-71
2023/09/02 06:55:25;;;;;;;23.00;14.45;;;18.00;99.90;;;;;;5016077;28;20080;-71
2023/09/02 06:57:51;;;;;;;21.23;13.90;;;18.10;99.90;;;;;;5016504;28;20404;-71
2023/09/02 07:00:16;;;;;;;17.77;12.40;;;18.20;99.90;;;;;;5016563;28;20049;-71
2023/09/02 07:02:42;;;;;;;23.38;14.95;;;18.20;99.90;;;;;;5016175;28;20128;-71
2023/09/02 07:05:09;;;;;;;20.85;14.18;;;;;;;;;;5015869;28;20048;-72
2023/09/02 07:07:37;;;;;;;25.42;15.00;;;18.40;99.90;;;;;;5016145;28;20041;-71
2023/09/02 07:10:04;;;;;;;27.58;13.40;;;18.40;99.90;;;;;;5016304;28;20378;-71
2023/09/02 07:12:30;;;;;;;17.83;11.65;;;18.60;99.90;;;;;;4999974;28;20049;-71
2023/09/02 07:14:57;;;;;;;23.45;15.18;;;;;;;;;;5015866;28;20030;-71
2023/09/02 07:17:26;;;;;;;18.15;12.40;;;;;;;;;;5015849;28;20046;-71
2023/09/02 07:19:59;;;;;;;23.48;13.68;;;;;;;;;;5015818;28;20041;-72
2023/09/02 07:22:34;;;;;;;;;;;;;;;;;;5034017;28;20474;-71
2023/09/02 07:25:01;;;;;;;17.70;10.90;;;;;;;;;;5033342;28;19917;-70
2023/09/02 07:27:28;;;;;;;21.35;12.75;;;;;;;;;;5033866;28;20068;-71
2023/09/02 07:29:55;;;;;;;22.33;13.43;;;;;;;;;;5015739;28;20382;-71
2023/09/02 07:32:22;;;;;;;18.25;13.52;;;;;;;;;;5017202;28;20048;-71
2023/09/02 07:34:51;;;;;;;20.75;13.73;;;;;;;;;;5017169;28;20401;-71
2023/09/02 07:37:20;;;;;;;17.02;12.15;;;;;;;;;;5015734;28;20033;-71
2023/09/02 07:39:47;;;;;;;24.20;13.50;;;;;;;;;;5015494;28;20037;-71
2023/09/02 07:42:14;;;;;;;21.98;12.70;;;;;;;;;;5015289;28;20513;-71
2023/09/02 07:44:48;;;;;;;18.67;12.77;;;;;;;;;;5015381;28;20037;-71
2023/09/02 07:47:17;;;;;;;17.65;12.25;;;;;;;;;;5033698;28;20413;-71
2023/09/02 07:49:46;;;;;;;15.13;11.65;;;;;;;;;;5034173;28;20045;-71
2023/09/02 07:52:13;;;;;;;20.25;12.73;;;;;;;;;;5032860;28;20037;-71
2023/09/02 07:54:40;;;;;;;15.77;11.43;;;;;;;;;;5033042;28;20038;-71
2023/09/02 07:57:07;;;;;;;20.10;10.80;;;;;;;;;;5015053;28;20045;-71
2023/09/02 07:59:33;;;;;;;16.38;11.75;;;20.30;99.90;;;;;;5015077;28;20092;-71
2023/09/02 08:02:00;;;;;;;16.98;11.65;;;;;;;;;;4998614;28;20045;-71
2023/09/02 08:04:27;;;;;;;15.18;10.45;;;;;;;;;;5014193;28;20049;-71
2023/09/02 08:06:56;;;;;;;14.13;10.82;;;;;;;;;;5015054;28;20077;-71
2023/09/02 08:09:25;;;;;;;15.32;10.43;;;;;;;;;;5014904;28;20042;-71
2023/09/02 08:11:59;;;;;;;14.98;9.48;;;;;;;;;;4998700;28;20064;-71
2023/09/02 08:14:32;;;;;;;14.25;9.48;;;;;;;;;;5032763;28;20041;-70
2023/09/02 08:16:58;;;;;;;16.90;9.70;;;20.70;99.90;;;;;;5014581;28;20053;-71
2023/09/02 08:19:23;;;;;;;15.57;8.85;;;20.60;99.90;;;;;;5032408;28;20501;-71
2023/09/02 08:21:49;;;;;;;15.18;9.43;;;20.80;99.90;;;;;;5014494;28;20045;-71
2023/09/02 08:24:14;;;;;;;13.02;8.88;;;20.80;99.90;;;;;;5014625;28;20056;-71
2023/09/02 08:26:41;;;;;;;12.25;7.57;;;21.00;99.90;;;;;;5014716;28;20404;-71
2023/09/02 08:29:08;;;;;;;13.52;9.27;;;21.20;99.90;;;;;;4998372;28;20049;-71
2023/09/02 08:31:33;;;;;;;14.77;9.48;;;21.20;99.90;;;;;;5014494;28;20049;-71
2023/09/02 08:33:59;;;;;;;14.00;8.68;;;20.90;99.90;;;;;;5032178;28;20041;-71
2023/09/02 08:36:24;;;;;;;13.02;8.05;;;21.10;99.90;;;;;;5031831;28;20029;-71
2023/09/02 08:38:53;;;;;;;13.32;8.50;;;21.50;99.90;;;;;;5014378;28;20045;-71
2023/09/02 08:41:26;;;;;;;14.98;8.30;;;21.30;99.90;;;;;;5014259;28;20037;-71
2023/09/02 08:43:53;;;;;;;11.48;8.00;;;21.30;99.90;;;;;;5014359;28;20068;-72
2023/09/02 08:46:21;;;;;;;8.68;7.18;;;21.50;99.90;;;;;;5014043;28;20049;-71
2023/09/02 08:48:48;;;;;;;11.73;8.50;;;21.60;99.90;;;;;;5014187;28;20501;-71
2023/09/02 08:51:14;;;;;;;13.07;7.25;;;21.70;99.90;;;;;;5014082;28;20496;-71
2023/09/02 08:53:42;;;;;;;11.63;7.82;;;21.50;99.90;;;;;;5013967;28;20046;-71
2023/09/02 08:56:09;;;;;;;12.23;7.72;;;21.50;99.90;;;;;;5013868;28;20049;-71
2023/09/02 08:58:39;;;;;;;13.50;8.05;;;22.40;99.90;;;;;;4997829;28;20041;-71
2023/09/02 09:01:05;;;;;;;12.80;8.73;;;21.80;99.90;;;;;;5014310;28;20041;-71
2023/09/02 09:03:31;;;;;;;12.13;8.13;;;21.80;99.90;;;;;;4997818;28;20374;-71
2023/09/02 09:06:02;;;;;;;11.48;6.80;;;21.80;99.90;;;;;;5013799;28;20084;-71
2023/09/02 09:08:30;;;;;;;7.63;6.53;;;22.10;99.90;;;;;;5014019;28;20100;-71
2023/09/02 09:10:56;;;;;;;9.77;7.18;;;22.10;99.90;;;;;;5014077;28;20038;-71
2023/09/02 09:13:24;;;;;;;10.23;7.55;;;22.10;99.90;;;;;;5014172;28;20041;-71
2023/09/02 09:15:51;;;;;;;9.93;7.80;;;22.00;99.90;;;;;;5013503;28;20045;-70
2023/09/02 09:18:18;;;;;;;15.52;8.40;;;22.00;99.90;;;;;;5014292;28;20116;-71
2023/09/02 09:20:44;;;;;;;12.82;7.78;;;22.20;99.90;;;;;;5014058;28;20095;-71
2023/09/02 09:23:10;;;;;;;11.02;7.97;;;22.20;99.90;;;;;;5013790;28;20056;-71
2023/09/02 09:25:36;;;;;;;11.35;8.75;;;22.30;99.90;;;;;;5013595;28;20205;-71
2023/09/02 09:28:12;;;;;;;13.38;8.43;;;22.30;99.90;;;;;;5013886;28;20044;-71
2023/09/02 09:30:38;;;;;;;14.93;8.00;;;22.30;99.90;;;;;;5014185;28;20101;-71
2023/09/02 09:33:05;;;;;;;11.07;6.85;;;22.50;99.90;;;;;;5013740;28;20041;-71
2023/09/02 09:35:35;;;;;;;9.52;6.60;;;22.30;99.90;;;;;;5013419;28;20073;-71
2023/09/02 09:38:01;;;;;;;13.10;8.38;;;22.30;99.90;;;;;;4998097;28;20037;-71
2023/09/02 09:40:31;;;;;;;9.80;7.43;;;22.50;99.90;;;;;;5014904;28;20451;-71
2023/09/02 09:43:02;;;;;;;10.23;7.45;;;22.60;99.90;;;;;;5013571;28;20049;-71
2023/09/02 09:45:29;;;;;;;11.73;6.95;;;22.90;99.90;;;;;;5013671;28;20053;-71
2023/09/02 09:47:59;;;;;;;10.18;7.47;;;22.90;99.90;;;;;;5031500;28;20037;-71
2023/09/02 09:50:27;;;;;;;14.02;7.88;;;23.10;99.90;;;;;;5013583;28;20048;-71
2023/09/02 09:53:09;;;;;;;9.90;7.30;;;23.00;99.90;;;;;;5031305;28;20077;-71
2023/09/02 09:55:36;;;;;;;11.98;7.68;;;23.10;99.90;;;;;;5013742;28;20116;-71
2023/09/02 09:58:03;;;;;;;10.73;7.43;;;23.20;99.90;;;;;;5031314;28;20116;-71
2023/09/02 10:00:29;;;;;;;18.33;8.27;;;23.20;99.90;;;;;;5013765;28;20192;-71
2023/09/02 10:02:59;;;;;;;12.90;8.27;;;23.10;99.90;;;;;;4997133;28;20038;-72
2023/09/02 10:05:33;;;;;;;12.20;7.90;;;22.90;99.90;;;;;;5013262;28;20041;-72
2023/09/02 10:08:04;;;;;;;13.68;7.80;;;23.10;99.90;;;;;;5013678;28;20037;-71
2023/09/02 10:10:34;;;;;;;12.88;8.00;;;23.10;99.90;;;;;;5013784;28;20044;-71
2023/09/02 10:13:01;;;;;;;10.25;7.30;;;23.20;99.90;;;;;;5013587;28;20049;-71
2023/09/02 10:15:27;;;;;;;12.25;6.40;;;23.40;99.90;;;;;;5013436;28;20037;-71
2023/09/02 10:18:04;;;;;;;14.07;7.63;;;23.60;99.90;;;;;;5013487;28;20034;-71
2023/09/02 10:20:38;;;;;;;11.23;7.82;;;23.40;99.90;;;;;;5013499;28;20409;-71
2023/09/02 10:23:10;;;;;;;9.10;5.75;;;23.40;99.90;;;;;;5013569;28;20100;-71
2023/09/02 10:26:08;;;;;;;8.80;6.47;;;23.30;99.90;;;;;;5013053;28;20033;-70
2023/09/02 10:28:38;;;;;;;11.13;5.88;;;23.40;99.90;;;;;;5004963;28;20056;-71
2023/09/02 10:31:12;;;;;;;11.45;6.45;;;23.80;99.90;;;;;;5016802;28;20043;-71
2023/09/02 10:34:15;;;;;;;11.52;6.75;;;24.10;99.90;;;;;;5016681;28;20124;-71
2023/09/02 10:36:51;;;;;;;9.23;6.75;;;24.10;99.90;;;;;;5034292;28;20049;-71
2023/09/02 10:39:26;;;;;;;8.18;6.30;;;23.90;99.90;;;;;;5016544;28;20417;-71
2023/09/02 10:41:54;;;;;;;11.15;6.45;;;23.60;99.90;;;;;;5016957;28;20452;-71
2023/09/02 10:44:22;;;;;;;9.63;6.75;;;23.10;99.90;;;;;;5034523;28;20056;-71
2023/09/02 10:46:48;;;;;;;11.43;6.82;;;22.70;99.90;;;;;;5016297;28;20520;-71
2023/09/02 10:49:14;;;;;;;10.95;7.78;;;22.80;99.90;;;;;;5016579;28;20124;-71
2023/09/02 10:51:41;;;;;;;14.02;7.15;;;22.80;99.90;;;;;;5016522;28;20103;-71
2023/09/02 10:54:07;;;;;;;8.20;5.90;;;22.70;99.90;;;;;;5033982;28;20501;-70
2023/09/02 10:56:34;;;;;;;10.45;7.38;;;22.80;99.90;;;;;;5016177;28;20120;-71
2023/09/02 10:59:05;;;;;;;8.60;6.63;;;23.00;99.90;;;;;;5016290;28;20041;-71
2023/09/02 11:01:47;;;;;;;11.35;7.60;;;23.10;99.90;;;;;;5016379;28;20045;-71
2023/09/02 11:04:16;;;;;;;8.60;5.50;;;23.20;99.90;;;;;;5016143;28;20044;-71
2023/09/02 11:07:19;;;;;;;6.70;5.80;;;23.60;99.90;;;;;;5015882;28;20084;-71
2023/09/02 11:09:52;;;;;;;9.43;5.80;;;23.00;99.90;;;;;;5015952;28;20113;-71
2023/09/02 11:12:18;;;;;;;7.68;4.82;;;22.70;99.90;;;;;;4999571;28;20196;-71
2023/09/02 11:15:08;;;;;;;10.15;5.43;;;22.80;99.90;;;;;;5016213;28;20084;-70
2023/09/02 11:17:43;;;;;;;6.70;4.85;;;22.80;99.90;;;;;;5016313;28;20041;-71
2023/09/02 11:20:13;;;;;;;9.43;5.60;;;23.20;99.90;;;;;;5015853;28;20513;-70
2023/09/02 11:22:53;;;;;;;5.72;4.68;;;23.30;99.90;;;;;;5015978;28;20078;-71
2023/09/02 11:25:29;;;;;;;8.65;4.53;;;23.60;99.90;;;;;;5017596;28;20049;-71
2023/09/02 11:27:55;;;;;;;6.82;4.68;;;23.90;99.90;;;;;;5016325;28;20095;-71
2023/09/02 11:30:25;;;;;;;8.07;4.80;;;23.70;99.90;;;;;;5015838;28;20094;-71
2023/09/02 11:32:52;;;;;;;6.88;5.20;;;23.70;99.90;;;;;;5015611;28;20033;-71
2023/09/02 11:35:28;;;;;;;7.45;5.15;;;23.70;99.90;;;;;;4999546;28;20072;-71
2023/09/02 11:37:54;;;;;;;7.53;4.47;;;24.00;99.90;;;;;;5015489;28;20052;-72
2023/09/02 11:40:22;;;;;;;6.45;4.43;;;24.10;99.90;;;;;;5015510;28;20056;-72
2023/09/02 11:43:01;;;;;;;10.48;4.35;;;23.80;99.90;;;;;;5016127;28;20421;-72
2023/09/02 11:45:32;;;;;;;4.70;3.47;;;24.10;99.90;;;;;;5015447;28;20045;-72
2023/09/02 11:47:58;;;;;;;10.23;5.53;;;24.10;99.90;;;;;;5015301;28;20052;-72
2023/09/02 11:50:24;;;;;;;10.05;4.57;;;24.10;99.90;;;;;;5032895;28;20050;-72
2023/09/02 11:52:55;;;;;;;5.38;3.85;;;24.40;99.90;;;;;;5015719;28;20037;-72
2023/09/02 11:55:22;;;;;;;5.28;3.30;;;24.80;99.90;;;;;;5032780;28;20122;-71
2023/09/02 11:57:48;;;;;;;6.90;4.10;;;24.50;99.90;;;;;;5015211;28;20045;-71
2023/09/02 12:00:22;;;;;;;6.35;3.85;;;25.20;99.90;;;;;;5015181;28;20410;-71
2023/09/02 12:02:49;;;;;;;4.70;2.85;;;24.20;99.90;;;;;;4998432;28;20045;-71
2023/09/02 12:05:15;;;;;;;5.68;3.38;;;24.00;99.90;;;;;;5014769;28;20037;-71
2023/09/02 12:07:45;;;;;;;14.85;4.57;;;23.80;99.90;;;;;;5014972;28;20041;-71
2023/09/02 12:10:16;;;;;;;7.05;3.38;;;24.00;99.90;;;;;;5014908;28;20033;-72
2023/09/02 12:12:47;;;;;;;4.28;3.60;;;23.80;99.90;;;;;;5032761;28;20117;-72
2023/09/02 12:15:13;;;;;;;7.20;3.80;;;23.90;99.90;;;;;;5014532;28;20083;-71
2023/09/02 12:17:40;;;;;;;5.93;3.17;;;24.20;99.90;;;;;;5014793;28;20037;-71
2023/09/02 12:20:07;;;;;;;4.95;3.45;;;24.40;99.90;;;;;;5014697;28;20501;-71
2023/09/02 12:22:35;;;;;;;5.50;2.63;;;24.40;99.90;;;;;;5014875;28;20103;-72
2023/09/02 12:25:19;;;;;;;7.63;3.50;;;24.50;99.90;;;;;;5014453;28;20038;-71
2023/09/02 12:27:45;;;;;;;6.50;3.17;;;23.70;99.90;;;;;;5014598;28;20052;-71
2023/09/02 12:30:12;;;;;;;6.30;3.90;;;24.30;99.90;;;;;;5014421;28;20045;-72
2023/09/02 12:32:38;;;;;;;5.07;3.10;;;23.40;99.90;;;;;;5014338;28;20041;-72
2023/09/02 12:35:08;;;;;;;6.45;3.30;;;23.80;99.90;;;;;;5014434;28;20033;-70
2023/09/02 12:37:34;;;;;;;4.57;3.17;;;24.20;99.90;;;;;;5014698;28;20120;-72
2023/09/02 12:40:20;;;;;;;5.45;2.88;;;24.40;99.90;;;;;;5014595;28;20588;-71
2023/09/02 12:42:54;;;;;;;5.00;3.10;;;24.60;99.90;;;;;;5013993;28;20049;-71
2023/09/02 12:45:33;;;;;;;5.00;2.70;;;24.40;99.90;;;;;;5014188;28;20055;-71
2023/09/02 12:48:01;;;;;;;3.05;2.42;;;24.10;99.90;;;;;;5014574;28;20120;-71
2023/09/02 12:50:27;;;;;;;3.03;1.90;;;23.60;99.90;;;;;;5013801;28;20041;-72
2023/09/02 12:53:03;;;;;;;4.03;2.20;;;24.10;99.90;;;;;;5013974;28;20041;-71
2023/09/02 12:55:29;;;;;;;3.45;2.08;;;24.50;99.90;;;;;;5014321;28;20037;-71